Terminal Aerodrome Forecast
Issued by NWS

Home | Current Version | Previous Version | Text Only | Print | Product List | Glossary On
Versions: 1 2 3 4 5 6 7 8 9 10 11 12
000
FTUS45 KVEF 012300
TAFVGT
TAF
KVGT 012320Z 0200/0224 17009KT P6SM SCT250
     FM020200 23011KT P6SM FEW250
     FM021000 34011G19KT P6SM SKC
     FM021400 34016G25KT P6SM SKC
     FM022000 35011KT P6SM SKC=

USA.gov is the U.S. government's official web portal to all federal, state and local government web resources and services.